Time;durP1;ratioP1;P1;durP2;ratioP2;P2;SDS_P1;SDS_P2;PMS_P1;PMS_P2;Temp;Humidity;BMP_temperature;BMP_pressure;BME280_temperature;BME280_humidity;BME280_pressure;Samples;Min_cycle;Max_cycle;Signal;HPM_P1;HPM_P2
2022/09/16 00:00:30;;;;;;;10.88;6.65;;;;;;;13.49;90.78;97589.64;1708583;84;25487;-61
2022/09/16 00:02:58;;;;;;;10.43;7.20;;;;;;;13.50;90.63;97584.98;1709149;83;25647;-60
2022/09/16 00:05:25;;;;;;;12.00;7.95;;;;;;;13.51;90.86;97587.38;1708872;83;25866;-60
2022/09/16 00:07:53;;;;;;;9.33;7.05;;;;;;;13.53;90.85;97593.89;1708820;83;25693;-60
2022/09/16 00:10:20;;;;;;;11.53;7.55;;;;;;;13.52;90.96;97590.33;1709015;84;27427;-61
2022/09/16 00:12:46;;;;;;;11.28;8.03;;;;;;;13.52;91.13;97597.22;1708672;84;25202;-60
2022/09/16 00:15:13;;;;;;;13.78;8.70;;;;;;;13.55;91.39;97599.81;1708982;83;25811;-60
2022/09/16 00:17:39;;;;;;;13.35;9.55;;;;;;;13.57;91.42;97595.33;1709076;83;25500;-60
2022/09/16 00:20:08;;;;;;;12.93;9.08;;;;;;;13.55;91.57;97600.63;1709134;83;25428;-60
2022/09/16 00:22:34;;;;;;;13.80;8.28;;;;;;;13.58;91.77;97597.72;1709046;84;27414;-60
2022/09/16 00:25:00;;;;;;;14.15;8.78;;;;;;;13.59;91.84;97606.22;1709078;84;25682;-60
2022/09/16 00:27:27;;;;;;;16.87;9.53;;;;;;;13.60;91.77;97609.18;1708968;83;25449;-60
2022/09/16 00:29:53;;;;;;;14.43;9.28;;;;;;;13.63;92.07;97618.09;1708993;83;25631;-60
2022/09/16 00:32:19;;;;;;;12.35;9.65;;;;;;;13.68;91.97;97618.39;1709371;83;25597;-60
2022/09/16 00:34:45;;;;;;;13.68;10.08;;;;;;;13.66;91.99;97613.25;1708719;84;27470;-60
2022/09/16 00:37:11;;;;;;;13.65;9.65;;;;;;;13.71;92.11;97621.80;1709022;84;25840;-60
2022/09/16 00:39:37;;;;;;;14.47;9.78;;;;;;;13.74;91.99;97622.46;1709176;83;25661;-60
2022/09/16 00:42:04;;;;;;;12.40;9.18;;;;;;;13.76;91.91;97620.72;1708638;83;27474;-60
2022/09/16 00:45:02;;;;;;;13.22;8.88;;;;;;;13.79;92.19;97615.87;1708747;84;25599;-60
2022/09/16 00:47:42;;;;;;;13.98;9.15;;;;;;;13.84;92.11;97620.30;1709176;83;27381;-60
2022/09/16 00:50:35;;;;;;;15.83;9.05;;;;;;;13.87;92.00;97615.42;1709030;83;25690;-60
2022/09/16 00:53:01;;;;;;;12.80;7.75;;;;;;;13.92;92.05;97620.08;1708503;83;25706;-60
2022/09/16 00:55:32;;;;;;;13.53;8.35;;;;;;;13.95;91.67;97615.80;1708765;83;26139;-60
2022/09/16 00:58:06;;;;;;;12.73;8.38;;;;;;;14.00;91.79;97625.73;1709144;83;32665;-60
2022/09/16 01:00:33;;;;;;;13.00;8.70;;;;;;;13.99;91.12;97630.42;1708613;84;27620;-60
2022/09/16 01:02:59;;;;;;;13.03;8.20;;;;;;;13.96;91.34;97627.02;1709039;84;25610;-60
2022/09/16 01:05:26;;;;;;;14.63;8.60;;;;;;;13.96;91.02;97629.00;1709035;83;25459;-60
2022/09/16 01:07:54;;;;;;;16.67;8.63;;;;;;;13.90;90.83;97617.45;1708973;84;26336;-60
2022/09/16 01:10:23;;;;;;;10.80;8.10;;;;;;;13.86;91.09;97628.41;1708942;84;25458;-60
2022/09/16 01:12:55;;;;;;;13.95;8.55;;;;;;;13.80;90.80;97616.89;1709116;83;27633;-62
2022/09/16 01:15:26;;;;;;;14.43;7.95;;;;;;;13.77;91.24;97618.98;1707354;83;25817;-62
2022/09/16 01:18:33;;;;;;;13.62;9.05;;;;;;;13.80;91.42;97636.16;1625706;87;25336;-62
2022/09/16 01:21:22;;;;;;;12.05;8.50;;;;;;;13.80;91.25;97636.73;1625572;88;26811;-62
2022/09/16 01:24:27;;;;;;;19.02;11.25;;;;;;;13.84;91.35;97632.09;1625817;88;25766;-62
2022/09/16 01:27:08;;;;;;;15.20;10.88;;;;;;;13.84;91.14;97630.72;1625609;88;28173;-62
2022/09/16 01:29:51;;;;;;;18.50;9.95;;;;;;;13.83;91.12;97632.45;1625356;88;25697;-62
2022/09/16 01:32:41;;;;;;;13.53;9.68;;;;;;;13.82;91.22;97631.67;1625850;88;25800;-62
2022/09/16 01:35:28;;;;;;;17.17;9.85;;;;;;;13.79;91.03;97631.02;1626144;88;25487;-62
2022/09/16 01:38:05;;;;;;;13.28;9.65;;;;;;;13.76;91.27;97623.48;1625493;88;25547;-62
2022/09/16 01:40:54;;;;;;;11.88;8.55;;;;;;;13.77;91.35;97625.88;1625501;88;27523;-62
2022/09/16 01:44:02;;;;;;;13.15;9.10;;;;;;;13.74;91.29;97626.59;1625612;88;25516;-62
2022/09/16 01:47:10;;;;;;;15.83;8.48;;;;;;;13.74;91.33;97625.78;1625701;87;25801;-62
2022/09/16 01:50:11;;;;;;;15.93;9.50;;;;;;;13.70;91.19;97633.95;1573290;91;25830;-62
2022/09/16 01:52:58;;;;;;;11.12;8.18;;;;;;;13.68;91.53;97632.16;1578430;90;25836;-62
2022/09/16 01:55:50;;;;;;;13.95;10.05;;;;;;;13.71;91.56;97627.31;1593452;89;27465;-61
2022/09/16 01:58:38;;;;;;;12.13;8.50;;;;;;;13.73;91.39;97631.08;1603461;89;25605;-61
2022/09/16 02:01:25;;;;;;;12.53;9.05;;;;;;;13.72;91.24;97630.84;1603647;89;25705;-61
2022/09/16 02:03:57;;;;;;;12.70;8.05;;;;;;;13.69;91.19;97624.11;1555676;92;25756;-61
2022/09/16 02:06:25;;;;;;;14.68;8.55;;;;;;;13.69;91.18;97621.36;1555625;92;25519;-61
2022/09/16 02:09:03;;;;;;;12.75;8.58;;;;;;;13.66;91.16;97618.75;1555439;92;27359;-60
2022/09/16 02:11:30;;;;;;;12.03;8.50;;;;;;;13.67;91.06;97620.91;1555422;92;25728;-60
2022/09/16 02:14:08;;;;;;;11.43;8.10;;;;;;;13.67;91.06;97616.78;1555486;92;25622;-61
2022/09/16 02:16:51;;;;;;;11.83;8.23;;;;;;;13.66;90.94;97617.95;1555670;91;25646;-61
2022/09/16 02:19:23;;;;;;;15.58;8.18;;;;;;;13.64;91.07;97606.48;1556211;91;25739;-61
2022/09/16 02:21:52;;;;;;;13.95;8.35;;;;;;;13.64;90.78;97610.05;1555583;92;27513;-61
2022/09/16 02:24:21;;;;;;;14.18;7.72;;;;;;;13.59;90.40;97610.91;1616618;87;25541;-61
2022/09/16 02:27:00;;;;;;;11.57;8.33;;;;;;;13.58;90.66;97614.83;1634963;87;25481;-61
2022/09/16 02:29:32;;;;;;;12.15;8.48;;;;;;;13.57;90.33;97614.03;1634852;87;25799;-60
2022/09/16 02:32:02;;;;;;;11.25;8.23;;;;;;;13.55;90.25;97613.02;1633941;87;25687;-61
2022/09/16 02:34:33;;;;;;;11.03;7.92;;;;;;;13.55;90.13;97614.95;1634999;87;27438;-62
2022/09/16 02:37:05;;;;;;;10.65;7.65;;;;;;;13.52;90.08;97622.55;1634971;87;25856;-62
2022/09/16 02:39:36;;;;;;;13.60;8.18;;;;;;;13.52;90.56;97633.56;1638365;83;25807;-62
2022/09/16 02:42:04;;;;;;;12.25;8.25;;;;;;;13.54;90.67;97643.08;1722494;83;25602;-62
2022/09/16 02:44:30;;;;;;;12.05;8.38;;;;;;;13.56;90.74;97649.60;1722288;83;25412;-62
2022/09/16 02:47:14;;;;;;;10.93;8.53;;;;;;;13.53;90.42;97644.81;1722202;83;28145;-62
2022/09/16 02:49:51;;;;;;;14.90;8.60;;;;;;;13.49;90.45;97646.06;1722115;83;25640;-62
2022/09/16 02:52:44;;;;;;;11.30;8.38;;;;;;;13.46;90.41;97645.97;1718268;83;25523;-62
2022/09/16 02:55:37;;;;;;;11.63;8.40;;;;;;;13.43;90.32;97649.68;1709075;84;26152;-62
2022/09/16 02:58:06;;;;;;;12.45;8.33;;;;;;;13.38;90.34;97653.27;1704991;84;26045;-62
2022/09/16 03:00:36;;;;;;;12.90;8.10;;;;;;;13.30;90.12;97653.70;1708467;83;27500;-62
2022/09/16 03:03:03;;;;;;;;;;;;;;;13.25;90.04;97646.52;1711378;84;25563;-62
2022/09/16 03:05:30;;;;;;;9.95;7.05;;;;;;;13.17;90.00;97641.41;1708686;84;25460;-62
2022/09/16 03:07:57;;;;;;;10.50;7.00;;;;;;;13.09;89.86;97657.52;1709092;84;25606;-62
2022/09/16 03:10:27;;;;;;;11.90;7.00;;;;;;;13.02;90.06;97650.47;1708650;83;25608;-62
2022/09/16 03:13:08;;;;;;;10.83;7.27;;;;;;;12.96;89.88;97647.19;1709476;83;27309;-62
2022/09/16 03:15:54;;;;;;;10.85;7.12;;;;;;;12.90;90.05;97641.14;1708674;83;35319;-62
2022/09/16 03:18:40;;;;;;;12.98;7.05;;;;;;;12.85;89.95;97648.30;1708799;83;25650;-62
2022/09/16 03:21:48;;;;;;;10.98;7.25;;;;;;;12.77;90.00;97647.31;1706270;83;25628;-62
2022/09/16 03:24:37;;;;;;;9.18;6.67;;;;;;;12.71;90.28;97650.09;1709073;83;25605;-62
2022/09/16 03:27:21;;;;;;;10.03;6.92;;;;;;;12.65;90.09;97646.00;1707664;83;27556;-62
2022/09/16 03:30:02;;;;;;;10.85;6.90;;;;;;;12.53;90.16;97647.66;1708473;83;25642;-62
2022/09/16 03:32:39;;;;;;;9.60;7.12;;;;;;;12.49;90.32;97641.28;1708347;83;25634;-62
2022/09/16 03:35:17;;;;;;;9.30;6.65;;;;;;;12.49;90.39;97639.13;1707926;83;25677;-62
2022/09/16 03:37:45;;;;;;;8.90;6.47;;;;;;;12.45;90.32;97640.39;1709110;84;25642;-62
2022/09/16 03:40:18;;;;;;;8.20;6.10;;;;;;;12.41;90.20;97639.50;1708750;84;27566;-62
2022/09/16 03:42:45;;;;;;;12.40;7.05;;;;;;;12.37;90.21;97647.64;1708669;83;25579;-62
2022/09/16 03:45:19;;;;;;;10.15;6.42;;;;;;;12.35;90.20;97645.80;1708947;83;25507;-62
2022/09/16 03:47:47;;;;;;;11.45;6.80;;;;;;;12.28;90.07;97648.36;1708918;83;25699;-62
2022/09/16 03:50:16;;;;;;;8.95;6.20;;;;;;;12.21;90.12;97648.17;1708684;84;25689;-62
2022/09/16 03:52:42;;;;;;;11.10;6.65;;;;;;;12.16;90.09;97645.91;1708908;83;27369;-62
2022/09/16 03:55:12;;;;;;;11.30;6.22;;;;;;;12.13;90.12;97648.55;1709041;84;25425;-62
2022/09/16 03:57:49;;;;;;;8.85;6.45;;;;;;;12.10;90.12;97642.38;1709078;84;25704;-62
2022/09/16 04:00:15;;;;;;;6.60;5.85;;;;;;;12.06;90.07;97639.48;1709214;84;25461;-62
2022/09/16 04:02:42;;;;;;;11.38;6.30;;;;;;;12.06;90.05;97632.63;1709420;83;25429;-62
2022/09/16 04:05:09;;;;;;;8.95;6.25;;;;;;;12.03;89.99;97633.31;1709143;83;28270;-62
2022/09/16 04:07:35;;;;;;;8.90;5.42;;;;;;;11.97;89.89;97631.99;1708972;83;25674;-62
2022/09/16 04:10:01;;;;;;;9.28;6.20;;;;;;;11.88;90.04;97626.62;1708959;83;25483;-62
2022/09/16 04:12:28;;;;;;;10.80;6.67;;;;;;;11.84;90.27;97621.61;1709008;83;25466;-62
2022/09/16 04:14:54;;;;;;;9.55;5.90;;;;;;;11.80;90.43;97616.00;1709172;84;25620;-62
2022/09/16 04:17:20;;;;;;;8.85;6.58;;;;;;;11.79;90.84;97615.22;1709090;83;27594;-62
2022/09/16 04:19:46;;;;;;;9.65;7.22;;;;;;;11.76;91.03;97610.99;1708968;83;25599;-62
2022/09/16 04:22:13;;;;;;;10.85;6.97;;;;;;;11.73;90.87;97611.12;1709184;83;25469;-62
2022/09/16 04:24:39;;;;;;;10.90;7.58;;;;;;;11.74;90.87;97610.53;1708678;84;25500;-62
2022/09/16 04:27:05;;;;;;;12.18;7.08;;;;;;;11.74;91.00;97612.71;1709187;84;25734;-62
2022/09/16 04:29:31;;;;;;;10.32;7.28;;;;;;;11.74;90.90;97614.08;1709310;83;27398;-62
2022/09/16 04:31:58;;;;;;;11.45;6.95;;;;;;;11.74;91.03;97614.65;1708883;84;25730;-62
2022/09/16 04:34:24;;;;;;;10.32;7.33;;;;;;;11.76;91.07;97617.86;1709048;83;25677;-62
2022/09/16 04:36:50;;;;;;;11.70;7.42;;;;;;;11.79;91.16;97617.97;1709252;84;25666;-62
2022/09/16 04:39:16;;;;;;;10.35;7.90;;;;;;;11.82;91.35;97626.08;1709177;83;25425;-62
2022/09/16 04:41:42;;;;;;;11.88;7.53;;;;;;;11.87;91.28;97628.59;1709124;84;27447;-62
2022/09/16 04:44:10;;;;;;;15.23;7.30;;;;;;;11.92;91.48;97623.42;1709034;83;25770;-62
2022/09/16 04:46:36;;;;;;;11.63;7.37;;;;;;;11.96;91.33;97625.69;1708934;84;25397;-62
2022/09/16 04:49:03;;;;;;;11.75;7.62;;;;;;;12.00;91.21;97626.59;1709075;83;26178;-62
2022/09/16 04:51:30;;;;;;;11.45;7.75;;;;;;;12.04;91.21;97623.95;1709089;83;25435;-62
2022/09/16 04:53:58;;;;;;;11.90;7.10;;;;;;;12.05;91.11;97631.03;1708711;83;28153;-62
2022/09/16 04:56:28;;;;;;;10.50;6.70;;;;;;;12.03;90.99;97630.57;1709235;83;25725;-62
2022/09/16 04:58:59;;;;;;;12.93;7.83;;;;;;;12.01;91.17;97621.31;1709533;83;25747;-62
2022/09/16 05:01:32;;;;;;;10.70;7.62;;;;;;;12.00;91.16;97633.45;1709079;84;25705;-62
2022/09/16 05:04:02;;;;;;;8.95;6.85;;;;;;;12.04;91.21;97637.68;1709159;83;25469;-62
2022/09/16 05:06:35;;;;;;;10.68;6.92;;;;;;;12.07;91.15;97634.27;1709293;84;28056;-62
2022/09/16 05:09:03;;;;;;;10.85;6.58;;;;;;;12.07;91.15;97634.27;1709179;84;25637;-62
2022/09/16 05:11:34;;;;;;;10.43;6.40;;;;;;;12.06;91.33;97635.37;1709103;83;25467;-62
2022/09/16 05:14:02;;;;;;;11.55;7.15;;;;;;;12.05;91.48;97626.91;1709075;84;25618;-61
2022/09/16 05:16:29;;;;;;;15.13;7.78;;;;;;;12.07;91.52;97643.04;1709297;83;25472;-62
2022/09/16 05:19:00;;;;;;;13.58;7.20;;;;;;;12.10;91.50;97649.23;1708681;83;26757;-62
2022/09/16 05:21:27;;;;;;;;;;;;;;;12.14;91.31;97650.12;1711226;84;25622;-61
2022/09/16 05:23:57;;;;;;;12.65;7.80;;;;;;;12.12;91.12;97646.36;1709031;83;25673;-61
2022/09/16 05:26:27;;;;;;;12.95;7.87;;;;;;;12.12;91.17;97642.83;1708941;84;26203;-61
2022/09/16 05:28:53;;;;;;;11.57;7.72;;;;;;;12.09;91.22;97637.45;1709023;83;25515;-62
2022/09/16 05:31:29;;;;;;;14.18;8.33;;;;;;;12.08;91.27;97637.23;1709320;84;27386;-62
2022/09/16 05:34:18;;;;;;;12.30;7.85;;;;;;;12.06;91.26;97635.37;1709119;84;25685;-62
2022/09/16 05:36:42;;;;;;;10.23;6.55;;;;;;;12.08;91.38;97630.92;1707460;83;25574;-62
2022/09/16 05:39:11;;;;;;;11.40;6.55;;;;;;;12.06;91.33;97625.75;1708919;83;25748;-62
2022/09/16 05:41:38;;;;;;;12.05;7.75;;;;;;;12.07;91.26;97619.16;1708492;83;25454;-62
2022/09/16 05:44:06;;;;;;;11.35;7.62;;;;;;;12.15;91.26;97616.05;1708733;83;27408;-62
2022/09/16 05:46:34;;;;;;;14.60;8.00;;;;;;;12.22;91.01;97604.44;1708594;84;25606;-62
2022/09/16 05:49:01;;;;;;;11.90;7.30;;;;;;;12.30;90.80;97606.24;1709051;84;25677;-62
2022/09/16 05:51:28;;;;;;;9.25;6.75;;;;;;;12.37;90.34;97606.42;1708767;84;25622;-62
2022/09/16 05:53:55;;;;;;;12.25;7.40;;;;;;;12.46;89.78;97603.51;1714836;83;25390;-62
2022/09/16 05:56:25;;;;;;;12.23;7.67;;;;;;;12.55;89.66;97608.84;1722490;83;27407;-62
2022/09/16 05:58:56;;;;;;;13.18;6.90;;;;;;;12.70;90.46;97621.59;1722369;83;26758;-61
2022/09/16 06:01:24;;;;;;;;;;;;;;;12.84;89.49;97630.77;1725304;83;25468;-61
2022/09/16 06:03:52;;;;;;;10.88;7.42;;;;;;;12.98;89.57;97639.37;1721936;83;25607;-61
2022/09/16 06:06:34;;;;;;;12.95;7.08;;;;;;;13.09;89.25;97638.83;1722052;83;25575;-61
2022/09/16 06:09:12;;;;;;;10.50;6.40;;;;;;;13.23;89.00;97636.43;1722290;83;28187;-61
2022/09/16 06:11:42;;;;;;;11.50;7.22;;;;;;;13.36;88.06;97645.96;1722187;83;25846;-61
2022/09/16 06:14:10;;;;;;;10.75;7.25;;;;;;;13.45;87.67;97649.89;1722501;83;25705;-61
2022/09/16 06:16:37;;;;;;;11.83;7.17;;;;;;;13.51;88.14;97651.24;1722243;83;25508;-61
2022/09/16 06:19:09;;;;;;;12.75;7.08;;;;;;;13.60;87.17;97635.33;1722183;83;25577;-61
2022/09/16 06:21:36;;;;;;;8.33;6.12;;;;;;;13.67;87.76;97640.18;1722007;83;28323;-61
2022/09/16 06:24:07;;;;;;;10.20;6.87;;;;;;;13.73;85.88;97635.98;1722279;83;25772;-61
2022/09/16 06:26:35;;;;;;;;;;;;;;;13.77;85.93;97635.51;1724669;83;25607;-61
2022/09/16 06:29:01;;;;;;;8.28;6.00;;;;;;;13.83;86.65;97631.88;1722292;82;25483;-61
2022/09/16 06:31:29;;;;;;;10.28;6.87;;;;;;;13.85;84.97;97629.58;1722269;83;25460;-61
2022/09/16 06:34:04;;;;;;;11.15;6.60;;;;;;;13.89;86.38;97631.82;1722030;83;27412;-61
2022/09/16 06:36:35;;;;;;;11.80;7.78;;;;;;;13.92;85.75;97623.41;1722288;83;25666;-61
2022/09/16 06:39:03;;;;;;;8.48;6.58;;;;;;;13.97;86.33;97626.45;1722321;83;25435;-61
2022/09/16 06:41:32;;;;;;;12.33;7.95;;;;;;;13.97;85.57;97619.56;1722175;83;25750;-60
2022/09/16 06:43:59;;;;;;;9.63;7.15;;;;;;;13.96;85.82;97617.98;1722268;83;25652;-60
2022/09/16 06:46:27;;;;;;;16.07;8.38;;;;;;;13.98;85.97;97622.53;1721946;83;27468;-59
2022/09/16 06:48:57;;;;;;;10.45;7.28;;;;;;;14.07;86.77;97619.58;1722169;83;25737;-60
2022/09/16 06:51:29;;;;;;;10.08;7.10;;;;;;;14.14;86.20;97619.71;1722299;83;25704;-60
2022/09/16 06:54:03;;;;;;;9.90;6.92;;;;;;;14.21;85.67;97623.98;1722130;83;25590;-60
2022/09/16 06:56:30;;;;;;;9.73;6.20;;;;;;;14.24;85.31;97637.03;1722409;83;25448;-60
2022/09/16 06:58:56;;;;;;;10.63;7.30;;;;;;;14.29;84.15;97632.61;1721881;83;27438;-60
2022/09/16 07:01:29;;;;;;;9.98;6.70;;;;;;;14.30;84.16;97625.13;1721874;83;25519;-60
2022/09/16 07:03:57;;;;;;;8.33;6.00;;;;;;;14.29;83.74;97632.61;1722291;83;25766;-59
2022/09/16 07:06:29;;;;;;;9.48;6.75;;;;;;;14.34;84.50;97643.12;1722163;83;25573;-60
2022/09/16 07:08:56;;;;;;;9.95;6.40;;;;;;;14.38;84.39;97643.97;1722358;83;25669;-59
2022/09/16 07:11:24;;;;;;;9.65;5.15;;;;;;;14.37;84.23;97643.77;1722183;83;27469;-59
2022/09/16 07:13:51;;;;;;;11.57;6.60;;;;;;;14.35;82.42;97649.64;1722233;82;25650;-60
2022/09/16 07:16:22;;;;;;;8.98;5.97;;;;;;;14.35;82.42;97649.64;1722160;83;25456;-60
2022/09/16 07:18:54;;;;;;;10.93;5.85;;;;;;;14.49;83.79;97654.64;1722313;83;25582;-59
2022/09/16 07:21:24;;;;;;;7.33;5.12;;;;;;;14.66;83.01;97650.62;1722407;83;25411;-59
2022/09/16 07:23:53;;;;;;;7.28;5.75;;;;;;;14.77;82.62;97653.55;1722131;83;27411;-59
2022/09/16 07:26:25;;;;;;;5.95;4.20;;;;;;;14.84;80.66;97656.25;1722013;83;25781;-59
2022/09/16 07:28:53;;;;;;;7.05;4.22;;;;;;;14.92;81.07;97657.98;1722244;83;25641;-59
2022/09/16 07:31:24;;;;;;;7.53;5.22;;;;;;;15.02;81.10;97650.47;1722252;83;25412;-59
2022/09/16 07:33:53;;;;;;;7.72;4.62;;;;;;;15.19;80.01;97649.74;1722581;83;27907;-59
2022/09/16 07:36:26;;;;;;;5.95;4.35;;;;;;;15.40;80.23;97655.41;1722374;83;27310;-59
2022/09/16 07:38:58;;;;;;;4.90;3.95;;;;;;;15.67;79.09;97656.77;1722103;83;25500;-59
2022/09/16 07:41:28;;;;;;;6.03;3.80;;;;;;;15.93;79.20;97655.15;1722212;83;25633;-59
2022/09/16 07:43:58;;;;;;;5.03;3.83;;;;;;;16.11;77.90;97661.51;1722527;83;25562;-59
2022/09/16 07:46:28;;;;;;;5.50;3.90;;;;;;;16.29;77.91;97649.28;1722426;83;25707;-59
2022/09/16 07:48:55;;;;;;;7.00;3.83;;;;;;;16.48;78.22;97655.81;1722462;83;27540;-60
2022/09/16 07:51:25;;;;;;;6.33;4.03;;;;;;;16.65;76.16;97658.56;1722288;83;25630;-60
2022/09/16 07:53:58;;;;;;;6.97;4.03;;;;;;;16.71;75.30;97655.67;1722267;83;25650;-60
2022/09/16 07:56:27;;;;;;;4.83;4.05;;;;;;;16.70;73.01;97661.58;1722309;83;25612;-60
2022/09/16 07:58:56;;;;;;;6.60;3.60;;;;;;;16.71;72.59;97662.58;1722694;83;25689;-60
2022/09/16 08:01:23;;;;;;;9.30;3.83;;;;;;;16.75;75.49;97661.25;1722390;83;27450;-61
2022/09/16 08:03:50;;;;;;;5.62;4.05;;;;;;;16.90;76.19;97667.10;1722311;83;25916;-61
2022/09/16 08:06:26;;;;;;;4.50;3.10;;;;;;;17.14;75.64;97671.11;1722194;83;25649;-61
2022/09/16 08:08:56;;;;;;;6.67;3.08;;;;;;;17.45;72.84;97669.56;1722090;83;26228;-61
2022/09/16 08:11:23;;;;;;;7.85;3.22;;;;;;;17.45;72.84;97669.56;1722435;83;25611;-61
2022/09/16 08:13:50;;;;;;;6.33;3.50;;;;;;;17.49;71.43;97676.72;1722321;83;27400;-61
2022/09/16 08:16:20;;;;;;;4.75;3.05;;;;;;;17.46;71.48;97676.11;1722444;83;25629;-61
2022/09/16 08:18:49;;;;;;;7.53;3.80;;;;;;;17.55;72.47;97678.53;1722301;83;25463;-61
2022/09/16 08:21:22;;;;;;;5.30;2.90;;;;;;;17.58;70.85;97676.98;1722681;83;25607;-61
2022/09/16 08:23:49;;;;;;;5.42;2.95;;;;;;;17.68;70.72;97684.58;1722346;83;25452;-61
2022/09/16 08:26:19;;;;;;;3.70;2.92;;;;;;;17.84;68.78;97679.33;1722088;83;27637;-61
2022/09/16 08:28:52;;;;;;;5.40;2.70;;;;;;;17.94;69.03;97679.36;1722077;83;25591;-62
2022/09/16 08:31:17;;;;;;;4.50;2.70;;;;;;;18.12;69.43;97681.48;1721168;83;29879;-61
2022/09/16 08:33:45;;;;;;;6.65;2.55;;;;;;;18.45;69.81;97693.30;1722523;83;26006;-62
2022/09/16 08:36:27;;;;;;;4.83;2.50;;;;;;;18.67;66.98;97683.05;1722236;83;25664;-61
2022/09/16 08:38:57;;;;;;;4.75;2.70;;;;;;;18.93;67.85;97678.34;1722097;83;27423;-62
2022/09/16 08:42:19;;;;;;;5.40;2.73;;;;;;;19.21;66.76;97678.20;1722440;83;25600;-61
2022/09/16 08:45:30;;;;;;;2.62;2.20;;;;;;;19.49;66.47;97675.20;1722307;82;25472;-61
2022/09/16 08:48:30;;;;;;;3.92;2.58;;;;;;;19.91;63.77;97672.76;1722331;83;25661;-62
2022/09/16 08:50:59;;;;;;;3.55;2.60;;;;;;;20.09;63.30;97678.88;1721946;83;25473;-61
2022/09/16 08:53:45;;;;;;;2.90;2.55;;;;;;;20.19;62.93;97677.27;1722259;83;27370;-62
2022/09/16 08:56:17;;;;;;;2.80;2.22;;;;;;;20.49;63.08;97673.16;1662678;86;25973;-62
2022/09/16 08:58:47;;;;;;;3.33;2.20;;;;;;;20.65;60.37;97667.71;1659420;86;26086;-62
2022/09/16 09:01:34;;;;;;;;;;;;;;;20.49;57.64;97670.99;1665987;86;25706;-62
2022/09/16 09:04:02;;;;;;;2.92;2.30;;;;;;;20.18;61.27;97677.09;1658448;86;25550;-62
2022/09/16 09:06:50;;;;;;;3.05;2.22;;;;;;;20.15;62.18;97685.62;1663439;86;27373;-63
2022/09/16 09:09:49;;;;;;;4.55;2.27;;;;;;;20.23;61.05;97683.61;1663266;86;25501;-62
2022/09/16 09:12:27;;;;;;;2.33;1.80;;;;;;;20.53;60.34;97678.72;1663386;86;25686;-63
2022/09/16 09:15:10;;;;;;;4.30;2.55;;;;;;;20.95;57.53;97673.94;1663366;86;25685;-63
2022/09/16 09:17:48;;;;;;;5.03;2.37;;;;;;;21.16;58.69;97677.16;1662720;86;25484;-63
2022/09/16 09:20:32;;;;;;;3.12;2.08;;;;;;;21.06;59.96;97688.56;1663394;86;28113;-63
2022/09/16 09:23:35;;;;;;;3.67;1.80;;;;;;;21.17;59.49;97685.70;1663095;86;25565;-64
2022/09/16 09:26:21;;;;;;;2.42;2.05;;;;;;;21.31;56.59;97683.41;1646572;87;25779;-64
2022/09/16 09:29:32;;;;;;;4.42;2.08;;;;;;;21.21;57.41;97684.28;1648830;87;25501;-64
2022/09/16 09:32:33;;;;;;;3.20;2.00;;;;;;;21.19;57.89;97686.09;1649232;87;25474;-64
2022/09/16 09:35:26;;;;;;;2.37;1.95;;;;;;;21.14;58.31;97676.77;1648220;87;29534;-64
2022/09/16 09:38:20;;;;;;;3.05;1.60;;;;;;;21.13;57.04;97666.21;1648212;87;25644;-64
2022/09/16 09:40:55;;;;;;;2.58;1.77;;;;;;;20.81;56.53;97668.01;1648360;87;25715;-64
2022/09/16 09:43:48;;;;;;;2.10;1.87;;;;;;;21.00;55.74;97666.52;1648401;87;26565;-64
2022/09/16 09:46:35;;;;;;;2.52;1.80;;;;;;;21.46;56.36;97656.79;1621719;88;25617;-64
2022/09/16 09:49:16;;;;;;;4.90;1.77;;;;;;;21.89;53.72;97659.19;1591128;89;27990;-65
2022/09/16 09:52:06;;;;;;;2.95;1.67;;;;;;;22.19;54.81;97664.62;1602406;89;25583;-65
2022/09/16 09:54:37;;;;;;;3.20;1.77;;;;;;;22.23;53.34;97661.80;1585575;90;25762;-65
2022/09/16 09:57:09;;;;;;;3.05;1.65;;;;;;;22.48;53.59;97653.69;1554236;92;25820;-65
2022/09/16 09:59:59;;;;;;;3.35;1.75;;;;;;;22.53;51.05;97646.84;1553920;92;25771;-62
2022/09/16 10:02:26;;;;;;;2.05;1.30;;;;;;;22.48;52.88;97644.54;1550040;92;27572;-65
2022/09/16 10:04:53;;;;;;;3.83;1.40;;;;;;;22.36;50.03;97643.88;1562159;91;25847;-65
2022/09/16 10:07:23;;;;;;;2.85;1.50;;;;;;;22.33;49.51;97640.53;1562005;91;25801;-65
2022/09/16 10:09:55;;;;;;;2.92;1.57;;;;;;;22.27;51.53;97641.60;1562101;91;26424;-65
2022/09/16 10:12:34;;;;;;;2.85;1.62;;;;;;;22.17;51.33;97650.91;1561725;91;25584;-65
2022/09/16 10:15:02;;;;;;;2.42;1.70;;;;;;;22.24;52.20;97650.81;1561561;91;27601;-65
2022/09/16 10:17:31;;;;;;;3.35;1.60;;;;;;;22.43;51.77;97644.40;1561668;91;25502;-65
2022/09/16 10:20:09;;;;;;;2.65;1.47;;;;;;;22.33;52.22;97646.11;1576814;87;25721;-65
2022/09/16 10:22:35;;;;;;;2.10;1.50;;;;;;;22.35;52.03;97641.50;1668878;85;25594;-66
2022/09/16 10:25:23;;;;;;;1.65;1.25;;;;;;;22.42;51.23;97646.39;1669132;86;25740;-66
2022/09/16 10:28:00;;;;;;;2.08;1.60;;;;;;;22.48;48.57;97650.12;1669276;86;28096;-66
2022/09/16 10:30:33;;;;;;;2.80;1.57;;;;;;;22.58;49.08;97640.83;1671034;83;25672;-65
2022/09/16 10:33:19;;;;;;;2.40;1.50;;;;;;;22.38;48.74;97648.45;1720095;83;25522;-65
2022/09/16 10:36:03;;;;;;;4.50;1.77;;;;;;;22.04;50.59;97639.48;1711536;83;25757;-65
2022/09/16 10:38:39;;;;;;;4.95;1.75;;;;;;;21.68;51.09;97641.44;1717087;83;25440;-65
2022/09/16 10:41:25;;;;;;;2.30;1.60;;;;;;;21.13;51.45;97640.38;1719511;83;27437;-65
2022/09/16 10:43:57;;;;;;;1.50;1.40;;;;;;;20.71;51.93;97643.81;1719651;83;25601;-65
2022/09/16 10:46:25;;;;;;;1.98;1.40;;;;;;;20.16;54.23;97647.48;1719673;83;25708;-65
2022/09/16 10:48:56;;;;;;;2.12;1.57;;;;;;;19.72;55.99;97642.62;1719979;83;26369;-65
2022/09/16 10:51:30;;;;;;;2.70;1.87;;;;;;;19.32;57.15;97637.94;1719652;83;25415;-65
2022/09/16 10:54:00;;;;;;;2.10;1.80;;;;;;;18.99;58.36;97650.98;1718981;83;27286;-65
2022/09/16 10:56:38;;;;;;;2.05;1.75;;;;;;;18.86;58.93;97650.00;1721485;83;25689;-65
2022/09/16 10:59:13;;;;;;;2.67;1.90;;;;;;;18.86;59.15;97654.16;1717180;83;25862;-65
2022/09/16 11:02:14;;;;;;;2.62;1.65;;;;;;;18.78;60.17;97649.19;1722327;83;26149;-65
2022/09/16 11:04:53;;;;;;;3.55;2.17;;;;;;;18.73;60.81;97644.02;1722010;83;25496;-65
2022/09/16 11:07:58;;;;;;;2.80;1.98;;;;;;;18.58;60.16;97639.63;1722120;83;25898;-65
2022/09/16 11:10:33;;;;;;;4.67;2.05;;;;;;;18.55;61.40;97642.59;1721640;83;25675;-65
2022/09/16 11:13:32;;;;;;;4.53;2.20;;;;;;;18.58;59.94;97636.27;1720758;83;25507;-64
2022/09/16 11:16:25;;;;;;;4.00;2.37;;;;;;;18.51;61.03;97639.80;1713072;83;26476;-64
2022/09/16 11:19:21;;;;;;;2.85;2.12;;;;;;;18.58;61.98;97638.23;1721579;83;25590;-65
2022/09/16 11:22:04;;;;;;;5.28;2.37;;;;;;;18.37;60.40;97632.84;1722354;83;27510;-65
2022/09/16 11:25:20;;;;;;;5.30;2.50;;;;;;;18.21;61.27;97629.82;1722127;83;25750;-65
2022/09/16 11:28:30;;;;;;;3.58;2.40;;;;;;;18.18;61.85;97624.47;1722176;83;25503;-64
2022/09/16 11:31:31;;;;;;;4.00;2.60;;;;;;;18.11;62.01;97620.88;1722573;82;25602;-65
2022/09/16 11:34:24;;;;;;;2.90;2.70;;;;;;;18.05;62.22;97611.51;1722299;83;25644;-64
2022/09/16 11:37:10;;;;;;;2.98;2.52;;;;;;;18.03;62.76;97612.51;1722210;83;28203;-64
2022/09/16 11:39:54;;;;;;;3.67;2.75;;;;;;;18.02;62.99;97612.90;1634739;86;25860;-64
2022/09/16 11:42:41;;;;;;;4.30;2.87;;;;;;;17.93;62.80;97600.77;1608742;89;25700;-64
2022/09/16 11:45:35;;;;;;;5.35;2.72;;;;;;;17.93;63.18;97602.95;1608933;89;25746;-64
2022/09/16 11:48:28;;;;;;;4.50;2.27;;;;;;;18.18;63.66;97603.67;1608824;88;25867;-64
2022/09/16 11:51:24;;;;;;;4.00;2.50;;;;;;;18.25;62.58;97609.05;1609144;89;27399;-63
2022/09/16 11:53:59;;;;;;;3.58;2.80;;;;;;;18.28;62.91;97601.33;1608613;89;25909;-63
2022/09/16 11:56:39;;;;;;;3.45;2.30;;;;;;;18.18;63.25;97602.29;1590502;89;25777;-63
2022/09/16 11:59:14;;;;;;;5.35;2.37;;;;;;;18.21;63.07;97604.06;1575304;90;25525;-63
2022/09/16 12:02:00;;;;;;;2.47;2.15;;;;;;;18.13;63.07;97595.72;1532216;93;25697;-63
2022/09/16 12:04:32;;;;;;;4.30;2.58;;;;;;;18.04;63.12;97593.30;1532085;93;27479;-63
2022/09/16 12:07:19;;;;;;;2.83;2.35;;;;;;;18.08;62.85;97600.25;1532247;93;25944;-63